Time;durP1;ratioP1;P1;durP2;ratioP2;P2;SDS_P1;SDS_P2;PMS_P1;PMS_P2;Temp;Humidity;BMP_temperature;BMP_pressure;BME280_temperature;BME280_humidity;BME280_pressure;Samples;Min_cycle;Max_cycle;Signal;HPM_P1;HPM_P2
2023/06/08 00:00:23;;;;;;;10.05;5.43;;;16.70;90.40;;;;;;6159700;23;20045;-84
2023/06/08 00:02:49;;;;;;;10.63;5.68;;;16.60;90.50;;;;;;6185163;23;20024;-84
2023/06/08 00:05:16;;;;;;;12.18;5.43;;;16.60;90.50;;;;;;6186167;23;20071;-84
2023/06/08 00:07:42;;;;;;;10.48;5.22;;;16.60;90.50;;;;;;6185300;23;20442;-83
2023/06/08 00:10:11;;;;;;;12.48;5.30;;;16.50;90.60;;;;;;6158971;23;20045;-84
2023/06/08 00:12:36;;;;;;;11.98;5.38;;;16.50;90.50;;;;;;6158970;23;20469;-83
2023/06/08 00:15:03;;;;;;;9.25;4.78;;;16.40;90.40;;;;;;6158487;23;20021;-83
2023/06/08 00:17:31;;;;;;;10.90;5.78;;;16.40;90.40;;;;;;6185882;23;20382;-84
2023/06/08 00:19:59;;;;;;;10.05;4.80;;;16.30;90.60;;;;;;6159435;23;20017;-84
2023/06/08 00:22:26;;;;;;;9.38;4.93;;;16.30;90.70;;;;;;6185172;23;20085;-83
2023/06/08 00:24:52;;;;;;;10.30;5.30;;;16.20;90.80;;;;;;6186027;23;20059;-84
2023/06/08 00:27:18;;;;;;;10.82;4.97;;;16.30;90.80;;;;;;6159548;23;20021;-83
2023/06/08 00:29:43;;;;;;;12.10;5.45;;;16.20;90.70;;;;;;6158336;23;20017;-85
2023/06/08 00:32:09;;;;;;;11.38;5.35;;;16.20;90.60;;;;;;6159410;23;20020;-84
2023/06/08 00:34:35;;;;;;;9.82;5.30;;;16.20;90.90;;;;;;6158876;23;20311;-84
2023/06/08 00:37:00;;;;;;;11.25;5.10;;;16.10;90.80;;;;;;6158279;23;20107;-84
2023/06/08 00:39:26;;;;;;;11.90;5.18;;;16.10;90.80;;;;;;6185895;23;20028;-84
2023/06/08 00:41:51;;;;;;;11.00;4.85;;;16.10;90.60;;;;;;6185582;23;20023;-83
2023/06/08 00:44:17;;;;;;;10.57;5.15;;;16.10;90.40;;;;;;6185222;23;20013;-84
2023/06/08 00:46:43;;;;;;;10.00;5.40;;;16.00;90.70;;;;;;6158827;23;20017;-83
2023/06/08 00:49:15;;;;;;;10.73;5.40;;;16.00;90.80;;;;;;6185699;23;20081;-84
2023/06/08 00:51:42;;;;;;;10.57;4.70;;;16.00;91.00;;;;;;6157667;23;20021;-83
2023/06/08 00:54:12;;;;;;;11.45;5.38;;;16.00;91.20;;;;;;6185924;23;20155;-84
2023/06/08 00:56:38;;;;;;;11.65;5.30;;;15.90;91.10;;;;;;6185267;23;20120;-83
2023/06/08 00:59:05;;;;;;;9.20;4.90;;;15.90;91.00;;;;;;6185101;23;20330;-85
2023/06/08 01:01:32;;;;;;;12.63;5.25;;;15.90;91.10;;;;;;6159238;23;20009;-84
2023/06/08 01:04:07;;;;;;;9.32;4.82;;;15.90;91.40;;;;;;6185144;23;20476;-84
2023/06/08 01:06:35;;;;;;;10.32;5.13;;;15.90;91.50;;;;;;6185736;23;20020;-85
2023/06/08 01:09:59;;;;;;;11.07;4.95;;;15.90;91.60;;;;;;6158744;23;20404;-84
2023/06/08 01:12:42;;;;;;;10.43;5.70;;;15.90;91.20;;;;;;6163235;23;20013;-84
2023/06/08 01:15:33;;;;;;;11.50;5.28;;;15.80;91.50;;;;;;6158545;23;20021;-84
2023/06/08 01:18:04;;;;;;;8.57;4.57;;;15.80;91.40;;;;;;6185029;23;20059;-84
2023/06/08 01:21:10;;;;;;;13.10;5.80;;;15.90;91.70;;;;;;6185142;23;20021;-84
2023/06/08 01:23:55;;;;;;;12.38;5.32;;;15.80;91.60;;;;;;6158236;23;20025;-84
2023/06/08 01:26:21;;;;;;;12.10;5.45;;;15.80;91.70;;;;;;6184801;23;20083;-84
2023/06/08 01:28:50;;;;;;;14.20;5.57;;;15.80;91.80;;;;;;6185170;23;20056;-84
2023/06/08 01:31:16;;;;;;;11.35;5.50;;;15.80;91.80;;;;;;6158703;23;20013;-84
2023/06/08 01:33:43;;;;;;;12.43;6.20;;;15.80;91.80;;;;;;6157380;23;20020;-84
2023/06/08 01:36:21;;;;;;;11.15;5.28;;;15.80;91.60;;;;;;6185374;23;20087;-84
2023/06/08 01:39:23;;;;;;;11.35;5.38;;;15.70;91.70;;;;;;6184376;23;20517;-84
2023/06/08 01:41:54;;;;;;;12.95;5.68;;;15.70;91.60;;;;;;6158692;23;20335;-83
2023/06/08 01:44:21;;;;;;;15.82;6.35;;;15.80;91.80;;;;;;6185415;23;20036;-84
2023/06/08 01:46:59;;;;;;;14.48;6.00;;;15.70;91.60;;;;;;6183891;23;20021;-84
2023/06/08 01:49:27;;;;;;;14.48;5.55;;;15.70;91.50;;;;;;6185051;23;20009;-84
2023/06/08 01:51:53;;;;;;;10.30;5.50;;;15.70;91.60;;;;;;6158315;23;20021;-83
2023/06/08 01:54:21;;;;;;;10.20;5.55;;;15.60;91.60;;;;;;6157402;23;20052;-83
2023/06/08 01:56:47;;;;;;;12.35;6.20;;;15.60;91.50;;;;;;6185017;23;20076;-84
2023/06/08 01:59:13;;;;;;;14.57;6.10;;;15.60;91.60;;;;;;6158730;23;20021;-84
2023/06/08 02:01:38;;;;;;;12.02;5.50;;;15.60;91.50;;;;;;6183738;23;20047;-84
2023/06/08 02:04:04;;;;;;;12.85;6.05;;;15.60;91.40;;;;;;6158287;23;20039;-83
2023/06/08 02:06:30;;;;;;;11.30;6.03;;;15.50;91.40;;;;;;6158794;23;20021;-83
2023/06/08 02:08:56;;;;;;;13.32;6.07;;;15.40;91.40;;;;;;6183967;23;20006;-83
2023/06/08 02:11:22;;;;;;;13.98;6.13;;;15.40;91.50;;;;;;6158685;23;20386;-83
2023/06/08 02:13:48;;;;;;;15.68;7.20;;;15.40;91.50;;;;;;6157754;23;20064;-83
2023/06/08 02:16:14;;;;;;;14.73;6.00;;;15.30;91.40;;;;;;6157539;23;20017;-83
2023/06/08 02:18:42;;;;;;;10.68;5.63;;;15.30;91.60;;;;;;6158137;23;20100;-83
2023/06/08 02:21:09;;;;;;;13.30;5.80;;;15.30;91.60;;;;;;6186087;23;20009;-83
2023/06/08 02:23:35;;;;;;;12.00;6.28;;;15.30;91.70;;;;;;6159136;23;20032;-83
2023/06/08 02:26:01;;;;;;;11.45;5.97;;;15.30;91.60;;;;;;6187475;23;20009;-83
2023/06/08 02:28:26;;;;;;;13.68;6.53;;;15.20;91.70;;;;;;6160255;23;20064;-83
2023/06/08 02:30:52;;;;;;;11.02;5.97;;;15.20;91.70;;;;;;6159868;23;20025;-83
2023/06/08 02:33:17;;;;;;;12.57;6.20;;;15.20;91.90;;;;;;6160421;23;20334;-84
2023/06/08 02:35:43;;;;;;;11.68;6.38;;;15.20;91.90;;;;;;6159022;23;20045;-83
2023/06/08 02:38:09;;;;;;;14.02;6.45;;;15.20;91.90;;;;;;6159984;23;20338;-83
2023/06/08 02:40:35;;;;;;;13.32;6.13;;;15.20;91.80;;;;;;6159946;23;20032;-83
2023/06/08 02:43:01;;;;;;;13.45;6.55;;;15.20;92.20;;;;;;6186961;23;20040;-83
2023/06/08 02:45:26;;;;;;;13.00;6.25;;;15.20;91.80;;;;;;6186327;23;20017;-83
2023/06/08 02:47:52;;;;;;;11.63;5.97;;;15.20;92.00;;;;;;6159897;23;20509;-83
2023/06/08 02:50:18;;;;;;;11.15;5.50;;;15.10;91.90;;;;;;6159746;23;20068;-83
2023/06/08 02:52:43;;;;;;;12.20;6.05;;;15.10;92.00;;;;;;6159206;23;20378;-83
2023/06/08 02:55:09;;;;;;;12.60;6.20;;;15.10;92.00;;;;;;6160439;23;20021;-83
2023/06/08 02:57:36;;;;;;;12.02;5.80;;;15.10;92.00;;;;;;6159266;23;20020;-83
2023/06/08 03:00:07;;;;;;;10.93;5.72;;;15.00;92.00;;;;;;6159728;23;20028;-82
2023/06/08 03:02:35;;;;;;;12.70;5.93;;;15.10;92.00;;;;;;6135514;23;20102;-83
2023/06/08 03:05:04;;;;;;;11.40;6.25;;;15.00;92.00;;;;;;6159724;23;20021;-83
2023/06/08 03:07:33;;;;;;;12.30;6.00;;;15.00;92.10;;;;;;6186884;23;20056;-83
2023/06/08 03:10:00;;;;;;;11.70;5.70;;;15.00;92.00;;;;;;6186681;23;20024;-83
2023/06/08 03:12:25;;;;;;;10.45;5.50;;;15.00;92.20;;;;;;6159368;23;20010;-83
2023/06/08 03:14:53;;;;;;;9.38;5.35;;;15.00;92.20;;;;;;6185996;23;20091;-83
2023/06/08 03:17:20;;;;;;;13.13;6.13;;;15.00;92.20;;;;;;6159986;23;20346;-83
2023/06/08 03:19:45;;;;;;;12.05;5.40;;;15.00;92.30;;;;;;6158779;23;20378;-83
2023/06/08 03:22:11;;;;;;;9.90;5.35;;;15.00;92.30;;;;;;6186960;23;20099;-83
2023/06/08 03:24:37;;;;;;;12.05;5.45;;;15.00;92.10;;;;;;6186023;23;20019;-83
2023/06/08 03:27:06;;;;;;;11.82;5.65;;;15.00;92.10;;;;;;6158431;23;20013;-83
2023/06/08 03:29:31;;;;;;;11.18;5.05;;;15.00;92.10;;;;;;6186265;23;20021;-83
2023/06/08 03:31:58;;;;;;;10.02;5.38;;;15.00;92.20;;;;;;6184279;23;20056;-83
2023/06/08 03:34:27;;;;;;;10.15;5.18;;;14.90;92.20;;;;;;6186464;23;20053;-83
2023/06/08 03:36:54;;;;;;;10.65;5.20;;;14.90;92.10;;;;;;6158844;23;20463;-83
2023/06/08 03:39:20;;;;;;;11.00;5.50;;;14.90;92.20;;;;;;6157997;23;20017;-83
2023/06/08 03:41:45;;;;;;;11.43;5.30;;;14.90;92.30;;;;;;6184834;23;20024;-82
2023/06/08 03:44:11;;;;;;;11.40;5.68;;;14.90;92.30;;;;;;6185209;23;20092;-83
2023/06/08 03:46:37;;;;;;;10.50;5.20;;;14.90;92.40;;;;;;6185223;23;20434;-83
2023/06/08 03:49:02;;;;;;;13.80;5.50;;;14.90;92.40;;;;;;6160011;23;20017;-83
2023/06/08 03:51:28;;;;;;;13.60;5.55;;;14.90;92.30;;;;;;6159722;23;20088;-83
2023/06/08 03:53:53;;;;;;;14.20;5.95;;;14.90;92.40;;;;;;6158674;23;20021;-82
2023/06/08 03:56:19;;;;;;;11.23;6.35;;;14.90;92.40;;;;;;6159365;23;20021;-84
2023/06/08 03:58:45;;;;;;;13.70;5.97;;;14.90;92.40;;;;;;6185805;23;20025;-83
2023/06/08 04:01:14;;;;;;;10.60;5.30;;;14.90;92.60;;;;;;6185353;23;20009;-84
2023/06/08 04:03:41;;;;;;;11.35;5.80;;;14.90;92.60;;;;;;6159370;23;20017;-83
2023/06/08 04:06:10;;;;;;;11.15;5.82;;;14.90;92.40;;;;;;6159385;23;20088;-83
2023/06/08 04:08:40;;;;;;;14.43;6.13;;;14.90;92.40;;;;;;6158423;23;20017;-91
2023/06/08 04:11:07;;;;;;;11.10;5.57;;;14.90;92.40;;;;;;6159633;23;20024;-91
2023/06/08 04:13:34;;;;;;;11.27;6.03;;;14.90;92.40;;;;;;6159654;23;20017;-89
2023/06/08 04:16:01;;;;;;;11.32;5.47;;;14.80;92.40;;;;;;6159191;23;20016;-90
2023/06/08 04:18:26;;;;;;;10.77;5.22;;;14.80;92.20;;;;;;6160053;23;20023;-90
2023/06/08 04:20:52;;;;;;;15.95;6.40;;;14.80;92.20;;;;;;6159944;23;20017;-92
2023/06/08 04:23:18;;;;;;;13.63;6.25;;;14.80;92.20;;;;;;6159799;23;20056;-92
2023/06/08 04:25:43;;;;;;;13.25;5.40;;;14.80;92.20;;;;;;6159659;23;20045;-92
2023/06/08 04:28:09;;;;;;;13.48;6.50;;;14.70;92.30;;;;;;6186683;23;20021;-91
2023/06/08 04:30:35;;;;;;;13.38;6.20;;;14.80;92.30;;;;;;6159701;23;20454;-93
2023/06/08 04:33:01;;;;;;;15.25;6.55;;;14.70;92.30;;;;;;6186908;23;20413;-92
2023/06/08 04:35:27;;;;;;;12.32;6.20;;;14.80;92.40;;;;;;6159514;23;20316;-91
2023/06/08 04:37:52;;;;;;;11.07;5.95;;;14.80;92.40;;;;;;6159301;23;20021;-92
2023/06/08 04:40:19;;;;;;;11.25;5.97;;;14.70;92.50;;;;;;6185244;23;20060;-85
2023/06/08 04:42:45;;;;;;;14.60;6.65;;;14.70;92.50;;;;;;6184321;23;20059;-86
2023/06/08 04:45:12;;;;;;;14.40;6.32;;;14.80;92.50;;;;;;6185272;23;20017;-85
2023/06/08 04:47:40;;;;;;;13.52;6.40;;;14.80;92.50;;;;;;6158884;23;20088;-85
2023/06/08 04:50:08;;;;;;;13.48;6.85;;;14.80;92.50;;;;;;6184948;23;20421;-87
2023/06/08 04:52:45;;;;;;;12.05;5.97;;;14.80;92.40;;;;;;6185061;23;20086;-84
2023/06/08 04:55:14;;;;;;;14.27;5.75;;;14.80;92.30;;;;;;6156121;23;20028;-84
2023/06/08 04:57:42;;;;;;;13.40;5.80;;;14.70;92.30;;;;;;6156358;23;20335;-83
2023/06/08 05:00:10;;;;;;;11.07;6.20;;;14.70;92.40;;;;;;6158582;23;20108;-84
2023/06/08 05:02:39;;;;;;;12.98;5.53;;;14.70;92.50;;;;;;6158455;23;20013;-84
2023/06/08 05:05:05;;;;;;;10.73;5.50;;;14.70;92.40;;;;;;6185125;23;20019;-83
2023/06/08 05:07:31;;;;;;;9.10;5.03;;;14.70;92.40;;;;;;6184613;23;20021;-84
2023/06/08 05:10:01;;;;;;;11.38;5.40;;;14.70;92.30;;;;;;6184838;23;20020;-84
2023/06/08 05:12:27;;;;;;;11.45;5.90;;;14.70;92.40;;;;;;6158475;23;20025;-83
2023/06/08 05:14:54;;;;;;;11.25;5.40;;;14.70;92.50;;;;;;6184833;23;20020;-83
2023/06/08 05:17:21;;;;;;;10.43;5.38;;;14.70;92.40;;;;;;6183994;23;20016;-83
2023/06/08 05:19:50;;;;;;;14.05;6.07;;;14.80;92.40;;;;;;6158555;23;20512;-85
2023/06/08 05:22:16;;;;;;;12.48;5.93;;;14.70;92.40;;;;;;6180603;23;20021;-85
2023/06/08 05:24:42;;;;;;;10.60;5.13;;;14.80;92.50;;;;;;6158102;23;20039;-86
2023/06/08 05:27:07;;;;;;;14.40;5.80;;;14.70;92.50;;;;;;6184905;23;20076;-85
2023/06/08 05:29:33;;;;;;;13.20;5.78;;;14.80;92.50;;;;;;6158654;23;20426;-84
2023/06/08 05:32:00;;;;;;;11.15;5.03;;;14.80;92.40;;;;;;6159369;23;20013;-84
2023/06/08 05:34:26;;;;;;;10.88;5.38;;;14.80;92.50;;;;;;6186549;23;20043;-85
2023/06/08 05:36:53;;;;;;;14.60;5.63;;;14.80;92.50;;;;;;6186424;23;20456;-85
2023/06/08 05:39:19;;;;;;;11.77;4.90;;;14.80;92.40;;;;;;6185776;23;20048;-84
2023/06/08 05:41:44;;;;;;;13.75;5.28;;;14.80;92.40;;;;;;6159875;23;20017;-83
2023/06/08 05:44:10;;;;;;;11.57;5.50;;;14.80;92.40;;;;;;6160290;23;20020;-85
2023/06/08 05:46:36;;;;;;;11.48;5.53;;;14.80;92.50;;;;;;6159175;23;20013;-84
2023/06/08 05:49:02;;;;;;;10.77;4.93;;;14.90;92.60;;;;;;6185535;23;20445;-84
2023/06/08 05:51:27;;;;;;;12.73;5.20;;;14.90;92.70;;;;;;6157927;23;20314;-84
2023/06/08 05:53:53;;;;;;;10.95;5.93;;;14.90;92.60;;;;;;6157289;23;20116;-84
2023/06/08 05:56:18;;;;;;;11.77;5.30;;;14.90;92.60;;;;;;6160432;23;20116;-85
2023/06/08 05:58:44;;;;;;;11.18;5.40;;;14.90;92.70;;;;;;6185849;23;20071;-85
2023/06/08 06:01:10;;;;;;;12.02;5.78;;;14.90;92.80;;;;;;6157744;23;20015;-84
2023/06/08 06:03:35;;;;;;;12.65;5.57;;;14.90;92.80;;;;;;6158170;23;20024;-84
2023/06/08 06:06:01;;;;;;;11.93;5.40;;;14.90;92.70;;;;;;6184778;23;20052;-85
2023/06/08 06:08:27;;;;;;;11.20;5.43;;;15.00;92.70;;;;;;6183514;23;20014;-83
2023/06/08 06:10:52;;;;;;;11.13;5.47;;;14.90;92.70;;;;;;6184206;23;20449;-83
2023/06/08 06:13:18;;;;;;;11.32;4.90;;;15.00;92.80;;;;;;6158074;23;20445;-83
2023/06/08 06:15:43;;;;;;;10.77;4.93;;;15.00;92.90;;;;;;6156680;23;20513;-85
2023/06/08 06:18:09;;;;;;;9.77;4.72;;;15.00;92.80;;;;;;6158292;23;20044;-84
2023/06/08 06:20:35;;;;;;;15.73;5.55;;;15.00;92.80;;;;;;6157359;23;20345;-83
2023/06/08 06:23:00;;;;;;;14.68;5.70;;;15.00;92.90;;;;;;6184099;23;20455;-83
2023/06/08 06:25:26;;;;;;;11.88;5.20;;;15.10;92.90;;;;;;6153092;23;20489;-85
2023/06/08 06:27:52;;;;;;;11.65;4.93;;;15.10;92.90;;;;;;6151775;23;20060;-84
2023/06/08 06:30:18;;;;;;;15.90;5.18;;;15.10;93.00;;;;;;6152592;23;20417;-84
2023/06/08 06:32:43;;;;;;;11.38;4.50;;;15.20;92.90;;;;;;6152659;23;20049;-84
2023/06/08 06:35:10;;;;;;;13.40;5.20;;;15.20;93.00;;;;;;6157566;23;20017;-84
2023/06/08 06:37:36;;;;;;;11.15;4.82;;;15.20;93.00;;;;;;6184407;23;20013;-85
2023/06/08 06:40:04;;;;;;;17.92;5.30;;;15.20;93.00;;;;;;6183506;23;20025;-82
2023/06/08 06:42:30;;;;;;;9.85;4.50;;;15.30;92.90;;;;;;6157172;23;20013;-83
2023/06/08 06:44:57;;;;;;;12.40;5.10;;;15.40;92.90;;;;;;6157363;23;20021;-83
2023/06/08 06:47:22;;;;;;;11.73;4.82;;;15.40;92.90;;;;;;6157286;23;20044;-85
2023/06/08 06:49:48;;;;;;;15.32;4.78;;;15.40;92.90;;;;;;6156891;23;20028;-84
2023/06/08 06:52:13;;;;;;;10.98;4.80;;;15.50;92.80;;;;;;6157954;23;20017;-84
2023/06/08 06:54:39;;;;;;;10.93;4.53;;;15.60;92.80;;;;;;6157683;23;20024;-83
2023/06/08 06:57:05;;;;;;;13.38;4.63;;;15.60;92.80;;;;;;6157280;23;20021;-84
2023/06/08 06:59:30;;;;;;;17.70;4.85;;;15.70;92.80;;;;;;6157739;23;20036;-83
2023/06/08 07:01:56;;;;;;;12.45;4.80;;;15.70;92.80;;;;;;6156686;23;20020;-84
2023/06/08 07:04:22;;;;;;;14.00;4.70;;;15.80;92.70;;;;;;6156070;23;20021;-85
2023/06/08 07:06:50;;;;;;;10.15;4.20;;;15.80;92.70;;;;;;6157910;23;20051;-84
2023/06/08 07:09:16;;;;;;;11.52;4.22;;;15.90;92.70;;;;;;6186756;23;20009;-84
2023/06/08 07:11:42;;;;;;;11.07;4.60;;;16.00;92.70;;;;;;6185255;23;20376;-85
2023/06/08 07:14:08;;;;;;;8.82;3.83;;;16.10;92.70;;;;;;6159108;23;20028;-83
2023/06/08 07:16:33;;;;;;;11.10;4.70;;;16.20;92.60;;;;;;6158864;23;20044;-84
2023/06/08 07:18:59;;;;;;;13.50;4.82;;;16.20;92.60;;;;;;6186463;23;20016;-84
2023/06/08 07:21:25;;;;;;;13.63;4.72;;;16.40;92.50;;;;;;6159841;23;20449;-84
2023/06/08 07:23:50;;;;;;;15.07;4.95;;;16.40;92.40;;;;;;6185335;23;20024;-84
2023/06/08 07:26:16;;;;;;;11.90;4.45;;;16.50;92.20;;;;;;6158740;23;20060;-84
2023/06/08 07:28:42;;;;;;;10.23;4.05;;;16.60;92.20;;;;;;6185371;23;20314;-85
2023/06/08 07:31:08;;;;;;;15.60;4.85;;;16.60;92.30;;;;;;6184770;23;20013;-84
2023/06/08 07:33:33;;;;;;;13.95;5.15;;;16.70;92.00;;;;;;6159390;23;20024;-85
2023/06/08 07:35:59;;;;;;;14.18;4.18;;;16.70;91.70;;;;;;6160046;23;20020;-84
2023/06/08 07:38:25;;;;;;;11.63;4.10;;;16.80;91.80;;;;;;6158764;23;20021;-84
2023/06/08 07:40:50;;;;;;;11.10;4.47;;;16.90;92.00;;;;;;6159309;23;20017;-84
2023/06/08 07:43:16;;;;;;;13.93;4.63;;;17.00;92.10;;;;;;6185775;23;20060;-85
2023/06/08 07:45:42;;;;;;;11.88;5.05;;;17.10;91.80;;;;;;6158331;23;20028;-84
2023/06/08 07:48:07;;;;;;;11.55;4.28;;;17.10;91.80;;;;;;6159135;23;20040;-84
2023/06/08 07:50:33;;;;;;;13.73;5.05;;;17.20;91.80;;;;;;6185794;23;20080;-84
2023/06/08 07:52:58;;;;;;;11.45;4.70;;;17.30;91.70;;;;;;6158713;23;20021;-84
2023/06/08 07:55:24;;;;;;;15.48;4.70;;;17.40;91.60;;;;;;6159626;23;20325;-84
2023/06/08 07:57:50;;;;;;;9.88;4.47;;;17.40;91.50;;;;;;6159704;23;20025;-84
2023/06/08 08:00:17;;;;;;;13.05;5.03;;;17.50;91.60;;;;;;6184547;23;20437;-85
2023/06/08 08:02:43;;;;;;;9.40;4.03;;;17.60;91.40;;;;;;6158967;23;20358;-84
2023/06/08 08:05:09;;;;;;;14.38;4.75;;;17.70;91.60;;;;;;6159175;23;20017;-85
2023/06/08 08:07:36;;;;;;;9.30;3.85;;;17.80;91.60;;;;;;6158433;23;20028;-84
2023/06/08 08:10:03;;;;;;;10.48;4.10;;;17.80;91.50;;;;;;6159017;23;20483;-84
2023/06/08 08:12:28;;;;;;;10.85;3.92;;;18.00;91.50;;;;;;6159222;23;20020;-84
2023/06/08 08:14:54;;;;;;;9.93;4.20;;;18.00;91.50;;;;;;6157605;23;20033;-83
2023/06/08 08:17:19;;;;;;;10.05;4.00;;;18.10;91.40;;;;;;6159633;23;20017;-84
2023/06/08 08:19:45;;;;;;;14.10;4.15;;;18.20;91.40;;;;;;6183994;23;20024;-83
2023/06/08 08:22:10;;;;;;;9.73;3.97;;;18.30;90.90;;;;;;6185431;23;20080;-85
2023/06/08 08:24:36;;;;;;;13.20;4.63;;;18.30;90.90;;;;;;6185627;23;20040;-84
2023/06/08 08:27:02;;;;;;;9.77;4.15;;;18.40;90.90;;;;;;6185154;23;20346;-84
2023/06/08 08:29:28;;;;;;;10.93;4.38;;;18.50;91.00;;;;;;6184301;23;20025;-84
2023/06/08 08:31:53;;;;;;;12.05;4.30;;;18.60;91.00;;;;;;6185001;23;20055;-83
2023/06/08 08:34:19;;;;;;;11.65;4.38;;;18.70;90.60;;;;;;6184447;23;20445;-84
2023/06/08 08:36:44;;;;;;;8.45;3.80;;;18.70;90.70;;;;;;6185541;23;20032;-86
2023/06/08 08:39:11;;;;;;;14.50;4.32;;;18.80;90.70;;;;;;6159302;23;20040;-86
2023/06/08 08:41:40;;;;;;;14.27;4.95;;;18.90;90.70;;;;;;6184524;23;20013;-87
2023/06/08 08:44:08;;;;;;;12.57;4.35;;;19.00;90.20;;;;;;6159047;23;20017;-85
2023/06/08 08:46:37;;;;;;;8.30;3.22;;;19.10;90.40;;;;;;6184644;23;20016;-85
2023/06/08 08:49:08;;;;;;;13.07;4.70;;;19.10;90.60;;;;;;6184142;23;20013;-84
2023/06/08 08:51:38;;;;;;;9.07;3.70;;;19.20;90.50;;;;;;6184933;23;20032;-86
2023/06/08 08:54:04;;;;;;;10.23;3.80;;;19.30;90.50;;;;;;6158329;23;20044;-86
2023/06/08 08:56:35;;;;;;;12.38;4.53;;;19.40;90.50;;;;;;6157412;23;20037;-86
2023/06/08 08:59:02;;;;;;;11.60;4.35;;;19.40;90.20;;;;;;6184770;23;20449;-86
2023/06/08 09:01:28;;;;;;;12.23;4.20;;;19.50;89.30;;;;;;6158718;23;20067;-86
2023/06/08 09:03:54;;;;;;;10.02;4.40;;;19.60;88.70;;;;;;6184151;23;20021;-86
2023/06/08 09:06:19;;;;;;;11.60;4.30;;;19.60;89.40;;;;;;6158894;23;20013;-86
2023/06/08 09:08:47;;;;;;;11.80;4.65;;;19.70;89.80;;;;;;6184713;23;20020;-86
2023/06/08 09:11:13;;;;;;;9.38;3.85;;;19.70;90.00;;;;;;6157230;23;20329;-86
2023/06/08 09:13:39;;;;;;;14.32;4.30;;;19.80;90.10;;;;;;6184389;23;20017;-85
2023/06/08 09:16:14;;;;;;;12.40;4.10;;;19.90;90.10;;;;;;6158648;23;20024;-85
2023/06/08 09:18:41;;;;;;;11.20;3.72;;;20.00;89.10;;;;;;6157449;23;20013;-85
2023/06/08 09:21:23;;;;;;;28.10;5.95;;;20.10;90.00;;;;;;6158433;23;20017;-85
2023/06/08 09:24:04;;;;;;;11.38;3.70;;;20.20;89.00;;;;;;6183375;23;20479;-86
2023/06/08 09:26:32;;;;;;;13.13;4.00;;;20.20;90.00;;;;;;6158790;23;20024;-86
2023/06/08 09:29:01;;;;;;;10.68;4.10;;;20.30;90.00;;;;;;6158288;23;20472;-85
2023/06/08 09:31:29;;;;;;;16.45;4.85;;;20.40;89.60;;;;;;6157123;23;20084;-85
2023/06/08 09:34:08;;;;;;;12.18;3.75;;;20.50;88.80;;;;;;6184286;23;20108;-84
2023/06/08 09:36:38;;;;;;;9.77;3.58;;;20.60;89.00;;;;;;6184916;23;20075;-85
2023/06/08 09:39:07;;;;;;;14.02;5.10;;;20.70;89.30;;;;;;6184262;23;20015;-86
2023/06/08 09:41:35;;;;;;;10.02;3.80;;;20.70;87.80;;;;;;6158121;23;20105;-85
2023/06/08 09:44:01;;;;;;;10.82;4.40;;;20.80;89.30;;;;;;6157073;23;20020;-85
2023/06/08 09:46:41;;;;;;;11.77;4.25;;;20.90;89.60;;;;;;6184283;23;20013;-85
2023/06/08 09:49:07;;;;;;;11.88;4.20;;;21.00;89.40;;;;;;6184897;23;20012;-85
2023/06/08 09:51:37;;;;;;;10.48;3.75;;;21.10;89.80;;;;;;6184838;23;20016;-85
2023/06/08 09:54:05;;;;;;;8.55;3.90;;;21.20;89.60;;;;;;6158342;23;20031;-85
2023/06/08 09:56:31;;;;;;;10.75;4.00;;;21.30;90.30;;;;;;6158609;23;20062;-84
2023/06/08 09:59:07;;;;;;;11.07;3.92;;;21.40;90.10;;;;;;6156654;23;20028;-83
2023/06/08 10:01:41;;;;;;;11.55;4.13;;;21.50;89.90;;;;;;6158155;23;20067;-84
2023/06/08 10:04:34;;;;;;;12.98;4.80;;;21.60;90.00;;;;;;6158025;23;20021;-83
2023/06/08 10:07:05;;;;;;;10.60;4.00;;;21.70;88.20;;;;;;6157456;23;20500;-84
2023/06/08 10:09:36;;;;;;;12.82;4.05;;;21.70;88.50;;;;;;6185090;23;20048;-85
2023/06/08 10:12:02;;;;;;;10.27;3.92;;;21.80;87.80;;;;;;6157249;23;20024;-84
2023/06/08 10:14:28;;;;;;;9.65;4.03;;;21.90;87.90;;;;;;6183554;23;20461;-84
2023/06/08 10:16:56;;;;;;;10.43;3.92;;;21.90;87.80;;;;;;6184359;23;20028;-84
2023/06/08 10:19:22;;;;;;;13.15;4.07;;;22.00;89.10;;;;;;6160685;23;20076;-84
2023/06/08 10:21:50;;;;;;;14.95;4.60;;;22.10;88.60;;;;;;6157338;23;20013;-84
2023/06/08 10:24:19;;;;;;;10.77;4.32;;;22.10;85.90;;;;;;6157887;23;20020;-84
2023/06/08 10:26:48;;;;;;;13.73;4.53;;;22.20;84.70;;;;;;6169490;23;20326;-84
2023/06/08 10:29:14;;;;;;;9.23;3.90;;;22.30;84.60;;;;;;6159289;23;20020;-86
2023/06/08 10:31:41;;;;;;;11.75;4.20;;;22.30;85.90;;;;;;6157891;23;20345;-84
2023/06/08 10:34:12;;;;;;;11.73;4.63;;;22.30;85.60;;;;;;6157127;23;20021;-85
2023/06/08 10:36:40;;;;;;;12.73;4.25;;;22.30;84.40;;;;;;6157973;23;20381;-84
2023/06/08 10:39:10;;;;;;;12.82;4.40;;;22.40;82.20;;;;;;6184715;23;20060;-84
2023/06/08 10:41:57;;;;;;;10.75;3.90;;;22.40;83.60;;;;;;6184033;23;20084;-85
2023/06/08 10:44:24;;;;;;;8.50;3.90;;;22.50;85.00;;;;;;6159647;23;20017;-86
2023/06/08 10:46:56;;;;;;;12.25;4.20;;;22.50;85.40;;;;;;6159040;23;20013;-86
2023/06/08 10:49:22;;;;;;;11.82;4.05;;;22.60;81.60;;;;;;6185076;23;20097;-85
2023/06/08 10:51:54;;;;;;;12.65;4.03;;;22.60;84.10;;;;;;6185978;23;20418;-84
2023/06/08 10:54:21;;;;;;;9.20;3.70;;;22.60;85.40;;;;;;6159522;23;20052;-85
2023/06/08 10:56:54;;;;;;;9.43;3.88;;;22.70;85.90;;;;;;6157916;23;20769;-86
2023/06/08 10:59:31;;;;;;;9.10;3.30;;;22.80;86.00;;;;;;6159925;23;20045;-86
2023/06/08 11:02:01;;;;;;;9.55;3.97;;;22.80;86.20;;;;;;6158976;23;20032;-86
2023/06/08 11:04:30;;;;;;;9.02;3.47;;;22.80;84.90;;;;;;6160327;23;20337;-86
2023/06/08 11:07:04;;;;;;;10.50;3.95;;;22.90;84.70;;;;;;6187027;23;20024;-87
2023/06/08 11:09:31;;;;;;;10.15;3.70;;;22.90;83.00;;;;;;6186393;23;20063;-86
2023/06/08 11:11:58;;;;;;;9.07;3.58;;;22.90;84.10;;;;;;6186455;23;20074;-87
2023/06/08 11:14:23;;;;;;;8.35;3.63;;;23.00;85.40;;;;;;6159972;23;20021;-85
2023/06/08 11:16:54;;;;;;;11.73;3.70;;;23.10;85.50;;;;;;6185632;23;20032;-86
2023/06/08 11:19:24;;;;;;;8.75;3.85;;;23.10;84.10;;;;;;6160570;23;20041;-84
2023/06/08 11:21:53;;;;;;;9.48;3.42;;;23.20;84.90;;;;;;6159445;23;20028;-85
2023/06/08 11:24:20;;;;;;;9.05;3.55;;;23.30;82.20;;;;;;6159010;23;20021;-85
2023/06/08 11:26:46;;;;;;;8.07;3.45;;;23.30;84.20;;;;;;6185963;23;20009;-84
2023/06/08 11:29:13;;;;;;;11.13;3.60;;;23.30;84.50;;;;;;6159482;23;20083;-84
2023/06/08 11:31:41;;;;;;;9.60;3.53;;;23.40;82.20;;;;;;6185948;23;20051;-84
2023/06/08 11:34:13;;;;;;;6.25;3.17;;;23.40;83.20;;;;;;6186798;23;20067;-85
2023/06/08 11:36:39;;;;;;;11.65;3.42;;;23.40;84.70;;;;;;6159405;23;20024;-84
2023/06/08 11:39:07;;;;;;;8.80;3.25;;;23.50;83.40;;;;;;6159547;23;20021;-84
2023/06/08 11:41:32;;;;;;;7.47;3.25;;;23.60;82.70;;;;;;6160099;23;20017;-85
2023/06/08 11:43:58;;;;;;;8.43;3.25;;;23.70;84.60;;;;;;6186390;23;20315;-84
2023/06/08 11:46:26;;;;;;;9.35;3.53;;;23.70;85.00;;;;;;6185250;23;20112;-83
2023/06/08 11:48:52;;;;;;;12.20;4.00;;;23.80;83.00;;;;;;6185888;23;20017;-83
2023/06/08 11:51:18;;;;;;;11.50;3.60;;;23.80;77.30;;;;;;6185258;23;20013;-85
2023/06/08 11:53:47;;;;;;;15.60;4.15;;;23.80;76.60;;;;;;6185744;23;20017;-84
2023/06/08 11:56:13;;;;;;;10.65;3.60;;;23.70;73.40;;;;;;6186637;23;20075;-85
2023/06/08 11:58:40;;;;;;;8.07;3.45;;;23.80;79.60;;;;;;6185286;23;20013;-85
2023/06/08 12:01:11;;;;;;;8.60;3.45;;;23.70;80.70;;;;;;6186565;23;20017;-84
2023/06/08 12:03:48;;;;;;;14.75;4.03;;;23.80;81.40;;;;;;6159299;23;20009;-84
2023/06/08 12:06:15;;;;;;;13.25;3.80;;;23.90;76.90;;;;;;6185619;23;20025;-91
2023/06/08 12:08:42;;;;;;;8.68;3.33;;;23.90;72.90;;;;;;6159515;23;20084;-84
2023/06/08 12:11:09;;;;;;;8.00;3.28;;;23.90;79.50;;;;;;6160046;23;20021;-85
2023/06/08 12:13:35;;;;;;;11.10;3.33;;;23.90;79.10;;;;;;6185338;23;20337;-85
2023/06/08 12:16:06;;;;;;;7.53;3.05;;;23.90;80.50;;;;;;6186712;23;20017;-84
2023/06/08 12:18:40;;;;;;;9.95;3.70;;;24.00;81.60;;;;;;6159654;23;20021;-84
2023/06/08 12:21:08;;;;;;;10.85;3.75;;;24.10;81.30;;;;;;6159387;23;20013;-85
2023/06/08 12:23:34;;;;;;;8.27;3.40;;;24.10;77.10;;;;;;6186044;23;20091;-86
2023/06/08 12:26:01;;;;;;;12.30;3.63;;;24.20;80.00;;;;;;6159596;23;20028;-85
2023/06/08 12:28:27;;;;;;;7.78;3.13;;;24.20;77.80;;;;;;6185343;23;20374;-85
2023/06/08 12:30:54;;;;;;;9.88;3.70;;;24.30;78.90;;;;;;6186263;23;20020;-86
2023/06/08 12:33:21;;;;;;;7.22;3.30;;;24.40;78.50;;;;;;6159245;23;20017;-86
2023/06/08 12:35:51;;;;;;;9.82;3.53;;;24.40;80.30;;;;;;6159004;23;20335;-86
2023/06/08 12:38:23;;;;;;;10.75;3.70;;;24.50;78.90;;;;;;6186308;23;20441;-86
2023/06/08 12:40:52;;;;;;;8.98;3.33;;;24.50;77.40;;;;;;6158535;23;20017;-86